Terminal Aerodrome Forecast
Issued by NWS Charleston, WV

Home | Current Version | Previous Version | Text Only | Print | Product List | Glossary On
Versions: 1 2 3 4 5 6 7 8 9 10 11 12 13 14 15 16 17 18 19 20 21 22 23 24 25 26 27 28
000
FTUS41 KRLX 271700
TAFHTS
TAF
KHTS 271720Z 2718/2818 VRB04KT P6SM SCT050
     FM272100 VRB04KT P6SM VCTS BKN045CB
     FM280300 00000KT P6SM BKN050
     FM280600 00000KT 6SM BR SCT040
     FM280800 00000KT 5SM BR SCT035
     FM281300 VRB03KT P6SM SCT050=

USA.gov is the U.S. government's official web portal to all federal, state and local government web resources and services.